DLH192Y EDDN-EDDH
Flight info
| Callsign | DLH192Y |
|---|---|
| Flight time | 0h 51m |
| Altitude | 30000 |
| Route | ERETO1G/28 ERETO DCT LONLI M726 LASTO M852 HLZ Z990 DIRBO/N0380F230 T902 RARUP RARUP3P |
| Aircraft | A320/M-SDE3FGHIRWY/LB1 |
Departure
| Time | 2026-05-04 13:54 |
|---|---|
| Airport | Nuremberg Airport (EDDN) |
Arrival
| Time | 2026-05-04 14:45 |
|---|---|
| Airport | Hamburg Helmut Schmidt Airport (EDDH) |
| Time | Latitude | Longitude | Altitude | Speed | Heading |
|---|---|---|---|---|---|
| 2026-05-04 13:32 | 49.49498 | 11.08045 | 1026 ft | 0 kts | 188° |
| 2026-05-04 13:45 | 49.49510 | 11.08048 | 1025 ft | 4 kts | 185° |
| 2026-05-04 13:46 | 49.49537 | 11.08048 | 1027 ft | 4 kts | 168° |
| 2026-05-04 13:46 | 49.49558 | 11.08033 | 1027 ft | 4 kts | 116° |
| 2026-05-04 13:46 | 49.49561 | 11.08022 | 1026 ft | 0 kts | 98° |
| 2026-05-04 13:49 | 49.49560 | 11.08027 | 1026 ft | 2 kts | 98° |
| 2026-05-04 13:49 | 49.49555 | 11.08079 | 1027 ft | 8 kts | 98° |
| 2026-05-04 13:50 | 49.49546 | 11.08165 | 1028 ft | 7 kts | 99° |
| 2026-05-04 13:50 | 49.49540 | 11.08234 | 1027 ft | 5 kts | 98° |
| 2026-05-04 13:50 | 49.49535 | 11.08305 | 1029 ft | 8 kts | 83° |
| 2026-05-04 13:50 | 49.49577 | 11.08352 | 1032 ft | 8 kts | 15° |
| 2026-05-04 13:51 | 49.49621 | 11.08409 | 1034 ft | 10 kts | 87° |
| 2026-05-04 13:51 | 49.49606 | 11.08529 | 1035 ft | 13 kts | 98° |
| 2026-05-04 13:51 | 49.49591 | 11.08686 | 1036 ft | 17 kts | 98° |
| 2026-05-04 13:51 | 49.49571 | 11.08880 | 1038 ft | 19 kts | 98° |
| 2026-05-04 13:52 | 49.49534 | 11.09254 | 1044 ft | 16 kts | 99° |
| 2026-05-04 13:52 | 49.49554 | 11.09411 | 1047 ft | 15 kts | 54° |
| 2026-05-04 13:52 | 49.49613 | 11.09533 | 1051 ft | 13 kts | 50° |
| 2026-05-04 13:53 | 49.49693 | 11.09540 | 1052 ft | 12 kts | 317° |
| 2026-05-04 13:53 | 49.49708 | 11.09452 | 1051 ft | 0 kts | 278° |
| 2026-05-04 13:53 | 49.49710 | 11.09428 | 1050 ft | 10 kts | 278° |
| 2026-05-04 13:54 | 49.49886 | 11.07670 | 1027 ft | 148 kts | 278° |
| 2026-05-04 13:54 | 49.50040 | 11.05928 | 1356 ft | 165 kts | 278° |
| 2026-05-04 13:54 | 49.50093 | 11.02398 | 2550 ft | 169 kts | 271° |
| 2026-05-04 13:55 | 49.50218 | 11.00521 | 2862 ft | 190 kts | 281° |
| 2026-05-04 13:55 | 49.50822 | 10.96043 | 3479 ft | 235 kts | 283° |
| 2026-05-04 13:55 | 49.51526 | 10.93680 | 3947 ft | 256 kts | 313° |
| 2026-05-04 13:56 | 49.53083 | 10.92324 | 4683 ft | 266 kts | 347° |
| 2026-05-04 13:56 | 49.54937 | 10.92039 | 5538 ft | 272 kts | 357° |
| 2026-05-04 13:56 | 49.58792 | 10.92292 | 7111 ft | 283 kts | 3° |
| 2026-05-04 13:57 | 49.60747 | 10.92539 | 7871 ft | 289 kts | 9° |
| 2026-05-04 13:57 | 49.62676 | 10.93516 | 8615 ft | 296 kts | 22° |
| 2026-05-04 13:58 | 49.68577 | 10.97324 | 10440 ft | 328 kts | 22° |
| 2026-05-04 13:58 | 49.73016 | 11.00183 | 11288 ft | 356 kts | 22° |
| 2026-05-04 13:58 | 49.75315 | 11.01669 | 11976 ft | 360 kts | 22° |
| 2026-05-04 13:59 | 49.77635 | 11.03175 | 12683 ft | 365 kts | 22° |
| 2026-05-04 13:59 | 49.79995 | 11.04706 | 13389 ft | 369 kts | 22° |
| 2026-05-04 13:59 | 49.84779 | 11.07811 | 14655 ft | 377 kts | 22° |
| 2026-05-04 14:00 | 49.87214 | 11.09397 | 15238 ft | 382 kts | 22° |
| 2026-05-04 14:00 | 49.92152 | 11.12618 | 16420 ft | 389 kts | 21° |
| 2026-05-04 14:00 | 49.94662 | 11.14253 | 16986 ft | 393 kts | 21° |
| 2026-05-04 14:01 | 49.97197 | 11.15904 | 17584 ft | 397 kts | 21° |
| 2026-05-04 14:01 | 49.98885 | 11.17003 | 17963 ft | 399 kts | 21° |
| 2026-05-04 14:01 | 50.04058 | 11.20389 | 19011 ft | 406 kts | 21° |
| 2026-05-04 14:02 | 50.06723 | 11.21851 | 19539 ft | 407 kts | 12° |
| 2026-05-04 14:02 | 50.09513 | 11.22600 | 20071 ft | 407 kts | 2° |
| 2026-05-04 14:02 | 50.12343 | 11.22684 | 20624 ft | 407 kts | 357° |
| 2026-05-04 14:02 | 50.15181 | 11.22679 | 21189 ft | 409 kts | 357° |
| 2026-05-04 14:03 | 50.18033 | 11.22689 | 21739 ft | 411 kts | 357° |
| 2026-05-04 14:03 | 50.20904 | 11.22709 | 22264 ft | 414 kts | 357° |
| 2026-05-04 14:03 | 50.23790 | 11.22724 | 22777 ft | 416 kts | 357° |
| 2026-05-04 14:03 | 50.26695 | 11.22740 | 23264 ft | 419 kts | 357° |
| 2026-05-04 14:04 | 50.32566 | 11.22784 | 24103 ft | 425 kts | 357° |
| 2026-05-04 14:04 | 50.35529 | 11.22796 | 24493 ft | 427 kts | 355° |
| 2026-05-04 14:04 | 50.38489 | 11.22448 | 24866 ft | 427 kts | 351° |
| 2026-05-04 14:05 | 50.44440 | 11.21540 | 25590 ft | 432 kts | 351° |
| 2026-05-04 14:05 | 50.47445 | 11.21085 | 25935 ft | 435 kts | 351° |
| 2026-05-04 14:05 | 50.50461 | 11.20633 | 26270 ft | 437 kts | 351° |
| 2026-05-04 14:06 | 50.53456 | 11.20186 | 26615 ft | 440 kts | 351° |
| 2026-05-04 14:06 | 50.56518 | 11.19726 | 26932 ft | 443 kts | 351° |
| 2026-05-04 14:06 | 50.59594 | 11.19262 | 27259 ft | 445 kts | 351° |
| 2026-05-04 14:06 | 50.62687 | 11.18793 | 27577 ft | 448 kts | 351° |
| 2026-05-04 14:07 | 50.65796 | 11.18318 | 27907 ft | 450 kts | 350° |
| 2026-05-04 14:07 | 50.68924 | 11.17837 | 28230 ft | 453 kts | 350° |
| 2026-05-04 14:07 | 50.72066 | 11.17352 | 28540 ft | 455 kts | 350° |
| 2026-05-04 14:07 | 50.75225 | 11.16865 | 28843 ft | 457 kts | 350° |
| 2026-05-04 14:08 | 50.78404 | 11.16379 | 29148 ft | 459 kts | 350° |
| 2026-05-04 14:08 | 50.81590 | 11.15893 | 29441 ft | 461 kts | 350° |
| 2026-05-04 14:08 | 50.84791 | 11.15404 | 29713 ft | 463 kts | 350° |
| 2026-05-04 14:08 | 50.88006 | 11.14909 | 29948 ft | 465 kts | 350° |
| 2026-05-04 14:09 | 50.94319 | 11.13949 | 29996 ft | 446 kts | 350° |
| 2026-05-04 14:10 | 51.03525 | 11.12533 | 29999 ft | 442 kts | 350° |
| 2026-05-04 14:10 | 51.09638 | 11.11578 | 29997 ft | 441 kts | 349° |
| 2026-05-04 14:11 | 51.15455 | 11.09261 | 29996 ft | 430 kts | 332° |
| 2026-05-04 14:11 | 51.23626 | 11.03436 | 29990 ft | 429 kts | 330° |
| 2026-05-04 14:12 | 51.29068 | 10.99548 | 29997 ft | 429 kts | 330° |
| 2026-05-04 14:13 | 51.37332 | 10.93916 | 29992 ft | 434 kts | 339° |
| 2026-05-04 14:13 | 51.43323 | 10.92530 | 29982 ft | 441 kts | 351° |
| 2026-05-04 14:14 | 51.49440 | 10.91822 | 29974 ft | 441 kts | 351° |
| 2026-05-04 14:14 | 51.58618 | 10.90719 | 29975 ft | 440 kts | 350° |
| 2026-05-04 14:15 | 51.70825 | 10.89181 | 29970 ft | 439 kts | 349° |
| 2026-05-04 14:16 | 51.79922 | 10.87586 | 29975 ft | 438 kts | 348° |
| 2026-05-04 14:17 | 51.89016 | 10.86061 | 29963 ft | 439 kts | 349° |
| 2026-05-04 14:18 | 51.98147 | 10.84844 | 29959 ft | 439 kts | 349° |
| 2026-05-04 14:19 | 52.10311 | 10.83145 | 29985 ft | 439 kts | 348° |
| 2026-05-04 14:19 | 52.16399 | 10.82277 | 29976 ft | 439 kts | 349° |
| 2026-05-04 14:20 | 52.22487 | 10.81423 | 29967 ft | 439 kts | 349° |
| 2026-05-04 14:20 | 52.28580 | 10.80591 | 29984 ft | 439 kts | 348° |
| 2026-05-04 14:21 | 52.37745 | 10.79662 | 29970 ft | 446 kts | 357° |
| 2026-05-04 14:21 | 52.43938 | 10.80297 | 29948 ft | 446 kts | 357° |
| 2026-05-04 14:22 | 52.50129 | 10.80942 | 29947 ft | 446 kts | 357° |
| 2026-05-04 14:22 | 52.56231 | 10.81583 | 29968 ft | 446 kts | 357° |
| 2026-05-04 14:23 | 52.65555 | 10.82560 | 29965 ft | 446 kts | 356° |
| 2026-05-04 14:24 | 52.71701 | 10.83198 | 29960 ft | 443 kts | 356° |
| 2026-05-04 14:24 | 52.77788 | 10.83280 | 29957 ft | 428 kts | 341° |
| 2026-05-04 14:24 | 52.80626 | 10.82049 | 29562 ft | 420 kts | 335° |
| 2026-05-04 14:25 | 52.83417 | 10.80667 | 29081 ft | 417 kts | 335° |
| 2026-05-04 14:25 | 52.88920 | 10.77859 | 28152 ft | 411 kts | 335° |
| 2026-05-04 14:25 | 52.91645 | 10.76459 | 27679 ft | 409 kts | 335° |
| 2026-05-04 14:26 | 52.94352 | 10.75071 | 27240 ft | 406 kts | 335° |
| 2026-05-04 14:26 | 52.97045 | 10.73699 | 26792 ft | 404 kts | 335° |
| 2026-05-04 14:26 | 52.99722 | 10.72340 | 26356 ft | 401 kts | 335° |
| 2026-05-04 14:26 | 53.02379 | 10.70986 | 25944 ft | 399 kts | 335° |
| 2026-05-04 14:27 | 53.05024 | 10.69639 | 25517 ft | 396 kts | 336° |
| 2026-05-04 14:27 | 53.07654 | 10.68299 | 25106 ft | 394 kts | 336° |
| 2026-05-04 14:27 | 53.10270 | 10.66963 | 24704 ft | 392 kts | 336° |
| 2026-05-04 14:27 | 53.12870 | 10.65632 | 24297 ft | 390 kts | 336° |
| 2026-05-04 14:28 | 53.15458 | 10.64307 | 23894 ft | 388 kts | 336° |
| 2026-05-04 14:28 | 53.18029 | 10.62989 | 23494 ft | 386 kts | 336° |
| 2026-05-04 14:28 | 53.20591 | 10.61671 | 23025 ft | 384 kts | 336° |
| 2026-05-04 14:28 | 53.23135 | 10.60364 | 22564 ft | 382 kts | 336° |
| 2026-05-04 14:29 | 53.28178 | 10.57773 | 21684 ft | 376 kts | 336° |
| 2026-05-04 14:29 | 53.33137 | 10.55208 | 20808 ft | 370 kts | 336° |
| 2026-05-04 14:30 | 53.35589 | 10.53937 | 20384 ft | 368 kts | 336° |
| 2026-05-04 14:30 | 53.38023 | 10.52676 | 19963 ft | 365 kts | 336° |
| 2026-05-04 14:30 | 53.42850 | 10.50173 | 19135 ft | 361 kts | 337° |
| 2026-05-04 14:31 | 53.45238 | 10.48932 | 18727 ft | 359 kts | 337° |
| 2026-05-04 14:31 | 53.49979 | 10.46462 | 17888 ft | 355 kts | 337° |
| 2026-05-04 14:32 | 53.54667 | 10.44018 | 17002 ft | 351 kts | 337° |
| 2026-05-04 14:32 | 53.56861 | 10.42512 | 16566 ft | 341 kts | 323° |
| 2026-05-04 14:32 | 53.58724 | 10.40135 | 16146 ft | 334 kts | 316° |
| 2026-05-04 14:32 | 53.60506 | 10.37645 | 15718 ft | 332 kts | 316° |
| 2026-05-04 14:33 | 53.62277 | 10.35158 | 15287 ft | 331 kts | 316° |
| 2026-05-04 14:33 | 53.64050 | 10.32690 | 14877 ft | 330 kts | 319° |
| 2026-05-04 14:33 | 53.66134 | 10.31025 | 14430 ft | 340 kts | 345° |
| 2026-05-04 14:33 | 53.68508 | 10.31175 | 13993 ft | 350 kts | 13° |
| 2026-05-04 14:34 | 53.70642 | 10.33170 | 13535 ft | 357 kts | 40° |
| 2026-05-04 14:34 | 53.72261 | 10.36347 | 13066 ft | 358 kts | 54° |
| 2026-05-04 14:34 | 53.73578 | 10.39912 | 12593 ft | 357 kts | 58° |
| 2026-05-04 14:34 | 53.74827 | 10.43499 | 12119 ft | 349 kts | 57° |
| 2026-05-04 14:35 | 53.76118 | 10.46916 | 11668 ft | 342 kts | 54° |
| 2026-05-04 14:35 | 53.77495 | 10.50169 | 11244 ft | 338 kts | 51° |
| 2026-05-04 14:35 | 53.78939 | 10.53287 | 10820 ft | 336 kts | 49° |
| 2026-05-04 14:35 | 53.80422 | 10.56328 | 10421 ft | 334 kts | 48° |
| 2026-05-04 14:36 | 53.82000 | 10.59180 | 10008 ft | 328 kts | 34° |
| 2026-05-04 14:36 | 53.83992 | 10.60640 | 9575 ft | 304 kts | 2° |
| 2026-05-04 14:36 | 53.85976 | 10.60206 | 9134 ft | 279 kts | 330° |
| 2026-05-04 14:36 | 53.87494 | 10.58330 | 8688 ft | 270 kts | 315° |
| 2026-05-04 14:37 | 53.88733 | 10.56023 | 8238 ft | 257 kts | 294° |
| 2026-05-04 14:37 | 53.89094 | 10.53202 | 7807 ft | 241 kts | 263° |
| 2026-05-04 14:37 | 53.88524 | 10.50608 | 7396 ft | 237 kts | 232° |
| 2026-05-04 14:37 | 53.87375 | 10.48593 | 6972 ft | 238 kts | 229° |
| 2026-05-04 14:38 | 53.86301 | 10.46474 | 6551 ft | 236 kts | 233° |
| 2026-05-04 14:38 | 53.85286 | 10.44346 | 6117 ft | 229 kts | 233° |
| 2026-05-04 14:38 | 53.84290 | 10.42277 | 5683 ft | 225 kts | 233° |
| 2026-05-04 14:38 | 53.83308 | 10.40252 | 5501 ft | 222 kts | 233° |
| 2026-05-04 14:39 | 53.82325 | 10.38225 | 5495 ft | 223 kts | 233° |
| 2026-05-04 14:39 | 53.81336 | 10.36189 | 5441 ft | 225 kts | 233° |
| 2026-05-04 14:39 | 53.80344 | 10.34150 | 5203 ft | 224 kts | 233° |
| 2026-05-04 14:40 | 53.78382 | 10.30122 | 4606 ft | 216 kts | 232° |
| 2026-05-04 14:40 | 53.77449 | 10.28210 | 4322 ft | 206 kts | 232° |
| 2026-05-04 14:40 | 53.76557 | 10.26381 | 4046 ft | 197 kts | 233° |
| 2026-05-04 14:40 | 53.75704 | 10.24635 | 3830 ft | 191 kts | 233° |
| 2026-05-04 14:41 | 53.74876 | 10.22938 | 3535 ft | 187 kts | 233° |
| 2026-05-04 14:41 | 53.74048 | 10.21245 | 3281 ft | 182 kts | 233° |
| 2026-05-04 14:41 | 53.72474 | 10.18028 | 2811 ft | 176 kts | 233° |
| 2026-05-04 14:42 | 53.70925 | 10.14866 | 2337 ft | 170 kts | 234° |
| 2026-05-04 14:42 | 53.70196 | 10.13382 | 2115 ft | 158 kts | 234° |
| 2026-05-04 14:42 | 53.69523 | 10.12014 | 1928 ft | 145 kts | 235° |
| 2026-05-04 14:43 | 53.68878 | 10.10699 | 1728 ft | 143 kts | 237° |
| 2026-05-04 14:43 | 53.68245 | 10.09407 | 1535 ft | 144 kts | 233° |
| 2026-05-04 14:43 | 53.67607 | 10.08108 | 1336 ft | 143 kts | 235° |
| 2026-05-04 14:43 | 53.66971 | 10.06815 | 1148 ft | 144 kts | 232° |
| 2026-05-04 14:44 | 53.66341 | 10.05533 | 952 ft | 142 kts | 234° |
| 2026-05-04 14:44 | 53.65712 | 10.04232 | 737 ft | 143 kts | 235° |
| 2026-05-04 14:44 | 53.65080 | 10.02943 | 559 ft | 143 kts | 234° |
| 2026-05-04 14:44 | 53.64449 | 10.01645 | 326 ft | 141 kts | 232° |
| 2026-05-04 14:45 | 53.63809 | 10.00371 | 152 ft | 142 kts | 233° |
| 2026-05-04 14:45 | 53.63200 | 9.99119 | 48 ft | 125 kts | 231° |
| 2026-05-04 14:45 | 53.62746 | 9.98230 | 43 ft | 75 kts | 230° |
| 2026-05-04 14:45 | 53.62530 | 9.97804 | 41 ft | 17 kts | 217° |
| 2026-05-04 14:46 | 53.62454 | 9.97812 | 42 ft | 8 kts | 147° |
| 2026-05-04 14:46 | 53.62433 | 9.97848 | 44 ft | 2 kts | 125° |
| 2026-05-04 14:46 | 53.62426 | 9.97888 | 45 ft | 6 kts | 98° |
| 2026-05-04 14:46 | 53.62437 | 9.97984 | 44 ft | 13 kts | 75° |
| 2026-05-04 14:47 | 53.62488 | 9.98144 | 47 ft | 18 kts | 51° |
| 2026-05-04 14:47 | 53.62573 | 9.98318 | 47 ft | 21 kts | 50° |
| 2026-05-04 14:47 | 53.62670 | 9.98509 | 47 ft | 22 kts | 49° |
| 2026-05-04 14:47 | 53.62770 | 9.98714 | 47 ft | 23 kts | 50° |
| 2026-05-04 14:48 | 53.62870 | 9.98919 | 47 ft | 23 kts | 50° |
| 2026-05-04 14:48 | 53.62976 | 9.99130 | 47 ft | 24 kts | 50° |
| 2026-05-04 14:48 | 53.63060 | 9.99307 | 47 ft | 17 kts | 55° |
| 2026-05-04 14:48 | 53.63076 | 9.99346 | 47 ft | 0 kts | 56° |
| 2026-05-04 14:50 | 53.63078 | 9.99352 | 47 ft | 3 kts | 56° |
| 2026-05-04 14:50 | 53.63097 | 9.99397 | 45 ft | 11 kts | 56° |
| 2026-05-04 14:50 | 53.63187 | 9.99601 | 47 ft | 19 kts | 50° |
| 2026-05-04 14:50 | 53.63247 | 9.99714 | 48 ft | 20 kts | 43° |
| 2026-05-04 14:51 | 53.63337 | 9.99880 | 48 ft | 14 kts | 50° |
| 2026-05-04 14:51 | 53.63381 | 9.99970 | 48 ft | 3 kts | 50° |
| 2026-05-04 14:51 | 53.63383 | 9.99973 | 48 ft | 0 kts | 50° |
| 2026-05-04 14:52 | 53.63394 | 9.99994 | 48 ft | 6 kts | 50° |
| 2026-05-04 14:52 | 53.63437 | 10.00100 | 48 ft | 15 kts | 82° |
| 2026-05-04 14:52 | 53.63401 | 10.00220 | 47 ft | 7 kts | 153° |
| 2026-05-04 14:53 | 53.63364 | 10.00231 | 46 ft | 4 kts | 173° |
| 2026-05-04 14:53 | 53.63343 | 10.00235 | 47 ft | 2 kts | 172° |
| 2026-05-04 14:53 | 53.63329 | 10.00250 | 48 ft | 4 kts | 134° |
| 2026-05-04 14:53 | 53.63328 | 10.00282 | 48 ft | 2 kts | 90° |
| 2026-05-04 14:54 | 53.63329 | 10.00302 | 48 ft | 1 kts | 87° |
| 2026-05-04 14:54 | 53.63329 | 10.00316 | 48 ft | 3 kts | 86° |
| 2026-05-04 14:54 | 53.63330 | 10.00340 | 48 ft | 1 kts | 86° |
| 2026-05-04 14:54 | 53.63331 | 10.00352 | 48 ft | 1 kts | 86° |
| 2026-05-04 14:55 | 53.63331 | 10.00353 | 48 ft | 0 kts | 86° |